Time;durP1;ratioP1;P1;durP2;ratioP2;P2;SDS_P1;SDS_P2;PMS_P1;PMS_P2;Temp;Humidity;BMP_temperature;BMP_pressure;BME280_temperature;BME280_humidity;BME280_pressure;Samples;Min_cycle;Max_cycle;Signal;HPM_P1;HPM_P2
2023/04/10 00:01:47;;;;;;;43.60;30.23;;;7.40;99.90;;;;;;4964515;28;20572;-84
2023/04/10 00:04:14;;;;;;;44.92;29.08;;;7.40;99.90;;;;;;4975325;28;20070;-84
2023/04/10 00:06:41;;;;;;;47.78;30.55;;;7.40;99.90;;;;;;4975128;28;20050;-84
2023/04/10 00:09:07;;;;;;;45.63;30.25;;;7.40;99.90;;;;;;4976698;28;20053;-84
2023/04/10 00:11:33;;;;;;;42.40;29.73;;;7.50;99.90;;;;;;4974948;28;20179;-85
2023/04/10 00:13:58;;;;;;;41.58;30.08;;;7.30;99.90;;;;;;4976069;28;20129;-85
2023/04/10 00:16:24;;;;;;;43.72;30.15;;;7.30;99.90;;;;;;4975535;28;20133;-84
2023/04/10 00:18:50;;;;;;;44.22;30.77;;;7.30;99.90;;;;;;4975354;28;20060;-84
2023/04/10 00:21:16;;;;;;;44.58;29.95;;;7.80;99.90;;;;;;4991220;28;20061;-84
2023/04/10 00:23:42;;;;;;;42.33;30.13;;;7.30;99.90;;;;;;4976073;28;20055;-84
2023/04/10 00:26:07;;;;;;;44.83;31.02;;;7.40;99.90;;;;;;4975110;28;20038;-84
2023/04/10 00:28:36;;;;;;;42.45;30.63;;;7.40;99.90;;;;;;4975999;28;20115;-84
2023/04/10 00:31:03;;;;;;;45.28;31.98;;;7.30;99.90;;;;;;4975328;28;20045;-84
2023/04/10 00:33:29;;;;;;;44.25;31.52;;;7.20;99.90;;;;;;4991171;28;20516;-84
2023/04/10 00:35:55;;;;;;;42.65;31.80;;;7.20;99.90;;;;;;4974554;28;20041;-84
2023/04/10 00:38:21;;;;;;;48.17;33.70;;;7.70;99.90;;;;;;4974347;28;20046;-84
2023/04/10 00:40:47;;;;;;;45.15;31.92;;;7.20;99.90;;;;;;4975023;28;20053;-84
2023/04/10 00:43:12;;;;;;;48.70;31.75;;;7.20;99.90;;;;;;4975291;28;20390;-84
2023/04/10 00:45:39;;;;;;;47.55;32.25;;;7.10;99.90;;;;;;4991695;28;20042;-84
2023/04/10 00:48:05;;;;;;;46.17;31.85;;;7.80;99.90;;;;;;4991092;28;20050;-84
2023/04/10 00:50:31;;;;;;;47.42;32.45;;;7.10;99.90;;;;;;4990523;28;20053;-84
2023/04/10 00:52:57;;;;;;;46.42;32.83;;;7.00;99.90;;;;;;4975530;28;20041;-84
2023/04/10 00:55:24;;;;;;;45.85;32.95;;;7.00;99.90;;;;;;4974642;28;20517;-84
2023/04/10 00:57:50;;;;;;;46.88;33.05;;;6.90;99.90;;;;;;4976317;28;20145;-85
2023/04/10 01:00:16;;;;;;;51.67;35.05;;;6.90;99.90;;;;;;4974285;28;20433;-84
2023/04/10 01:02:42;;;;;;;47.88;33.83;;;6.90;99.90;;;;;;4975377;28;20050;-84
2023/04/10 01:05:11;;;;;;;49.45;35.15;;;7.60;99.90;;;;;;4975283;28;20136;-84
2023/04/10 01:07:46;;;;;;;50.70;35.03;;;6.80;99.90;;;;;;4970341;28;20137;-85
2023/04/10 01:10:19;;;;;;;53.70;35.83;;;6.70;99.90;;;;;;4986889;28;20064;-84
2023/04/10 01:12:52;;;;;;;;;;;6.60;99.90;;;;;;4975555;28;20143;-85
2023/04/10 01:15:22;;;;;;;48.00;34.83;;;6.60;99.90;;;;;;4974481;28;19926;-84
2023/04/10 01:17:51;;;;;;;52.78;34.33;;;6.60;99.90;;;;;;4975117;28;20046;-84
2023/04/10 01:20:23;;;;;;;52.75;36.47;;;6.50;99.90;;;;;;4974848;28;20057;-84
2023/04/10 01:23:19;;;;;;;52.75;36.80;;;6.50;99.90;;;;;;4989565;28;20118;-83
2023/04/10 01:25:50;;;;;;;56.60;38.45;;;6.50;99.90;;;;;;4965679;28;20046;-84
2023/04/10 01:28:19;;;;;;;57.33;38.10;;;6.50;99.90;;;;;;4973962;28;20042;-84
2023/04/10 01:30:47;;;;;;;56.72;39.15;;;6.50;99.90;;;;;;4975233;28;20042;-84
2023/04/10 01:33:17;;;;;;;54.53;38.35;;;6.50;99.90;;;;;;4990620;28;20046;-84
2023/04/10 01:35:49;;;;;;;54.40;39.10;;;6.50;99.90;;;;;;4989404;28;20056;-84
2023/04/10 01:38:17;;;;;;;55.28;39.85;;;6.40;99.90;;;;;;4975175;28;20394;-83
2023/04/10 01:40:49;;;;;;;58.85;41.00;;;7.20;99.90;;;;;;4974304;28;20366;-83
2023/04/10 01:43:16;;;;;;;58.28;39.35;;;6.80;99.90;;;;;;4974167;28;20045;-83
2023/04/10 01:45:43;;;;;;;58.60;40.50;;;6.80;99.90;;;;;;4973828;28;20077;-84
2023/04/10 01:48:10;;;;;;;55.22;39.92;;;6.40;99.90;;;;;;4991127;28;20058;-84
2023/04/10 01:50:37;;;;;;;58.58;40.85;;;6.30;99.90;;;;;;4989618;28;20064;-84
2023/04/10 01:53:05;;;;;;;60.10;41.22;;;6.50;99.90;;;;;;4975107;28;20038;-84
2023/04/10 01:55:32;;;;;;;59.17;41.13;;;6.30;99.90;;;;;;4974304;28;20368;-84
2023/04/10 01:57:59;;;;;;;57.05;40.05;;;6.50;99.90;;;;;;4990258;28;20049;-84
2023/04/10 02:00:24;;;;;;;58.15;40.10;;;6.40;99.90;;;;;;4990178;28;20045;-83
2023/04/10 02:02:50;;;;;;;56.15;39.25;;;6.20;99.90;;;;;;4974674;28;20046;-84
2023/04/10 02:05:16;;;;;;;54.63;38.97;;;7.10;99.90;;;;;;4990431;28;20494;-84
2023/04/10 02:07:52;;;;;;;57.90;39.88;;;6.30;99.90;;;;;;4970542;28;20050;-84
2023/04/10 02:10:28;;;;;;;57.72;41.00;;;6.60;99.90;;;;;;4986835;28;20045;-84
2023/04/10 02:13:00;;;;;;;57.65;41.60;;;6.20;99.90;;;;;;4974794;28;20064;-84
2023/04/10 02:15:28;;;;;;;59.95;41.33;;;6.20;99.90;;;;;;4973218;28;20058;-84
2023/04/10 02:17:55;;;;;;;57.60;41.30;;;6.10;99.90;;;;;;4990265;28;20041;-84
2023/04/10 02:20:22;;;;;;;56.90;41.63;;;6.10;99.90;;;;;;4973975;28;20132;-84
2023/04/10 02:22:48;;;;;;;57.70;40.67;;;6.10;99.90;;;;;;4974191;28;20508;-84
2023/04/10 02:25:15;;;;;;;57.17;40.90;;;6.10;99.90;;;;;;4973943;28;20061;-84
2023/04/10 02:27:41;;;;;;;58.55;40.38;;;6.10;99.90;;;;;;4974045;28;20432;-83
2023/04/10 02:30:07;;;;;;;59.80;39.22;;;6.00;99.90;;;;;;4974638;28;20045;-84
2023/04/10 02:32:33;;;;;;;60.95;41.28;;;6.00;99.90;;;;;;4972297;28;20049;-84
2023/04/10 02:34:59;;;;;;;56.38;39.45;;;6.00;99.90;;;;;;4974001;28;20042;-84
2023/04/10 02:37:25;;;;;;;56.60;39.17;;;6.00;99.90;;;;;;4972938;28;20104;-84
2023/04/10 02:39:52;;;;;;;58.00;40.33;;;6.00;99.90;;;;;;4973693;28;20092;-84
2023/04/10 02:42:18;;;;;;;58.20;39.92;;;6.00;99.90;;;;;;4989821;28;20398;-83
2023/04/10 02:44:43;;;;;;;53.92;39.33;;;6.00;99.90;;;;;;4989827;28;20049;-84
2023/04/10 02:47:09;;;;;;;57.70;40.28;;;6.60;99.90;;;;;;4989555;28;20517;-84
2023/04/10 02:49:35;;;;;;;56.08;38.95;;;5.80;99.90;;;;;;4973310;28;20398;-84
2023/04/10 02:52:01;;;;;;;54.97;39.63;;;6.00;99.90;;;;;;4989314;28;20082;-84
2023/04/10 02:54:27;;;;;;;56.70;39.75;;;6.10;99.90;;;;;;4988851;28;20124;-84
2023/04/10 02:56:52;;;;;;;55.80;39.15;;;6.10;99.90;;;;;;4973595;28;20593;-84
2023/04/10 02:59:19;;;;;;;54.00;38.58;;;6.60;99.90;;;;;;4973271;28;20080;-85
2023/04/10 03:01:46;;;;;;;54.65;37.20;;;6.00;99.90;;;;;;4991527;28;20482;-84
2023/04/10 03:04:12;;;;;;;53.65;37.75;;;6.00;99.90;;;;;;4976897;28;20049;-84
2023/04/10 03:06:37;;;;;;;53.60;37.83;;;6.40;99.90;;;;;;4992434;28;20050;-84
2023/04/10 03:09:03;;;;;;;50.17;36.30;;;6.10;99.90;;;;;;4983844;28;20049;-85
2023/04/10 03:11:29;;;;;;;51.13;36.53;;;6.60;99.90;;;;;;4976862;28;20042;-84
2023/04/10 03:13:57;;;;;;;48.30;35.72;;;6.10;99.90;;;;;;4976636;28;20156;-84
2023/04/10 03:16:23;;;;;;;52.25;36.60;;;6.10;99.90;;;;;;4977058;28;20056;-84
2023/04/10 03:18:49;;;;;;;54.25;36.13;;;6.20;99.90;;;;;;4993847;28;20139;-84
2023/04/10 03:21:15;;;;;;;50.83;36.05;;;6.00;99.90;;;;;;4975231;28;20089;-84
2023/04/10 03:23:40;;;;;;;54.83;36.50;;;6.10;99.90;;;;;;4977654;28;20049;-84
2023/04/10 03:26:07;;;;;;;49.58;36.03;;;6.10;99.90;;;;;;4993239;28;20624;-84
2023/04/10 03:28:35;;;;;;;54.03;37.42;;;6.30;99.90;;;;;;4976036;28;20050;-84
2023/04/10 03:31:02;;;;;;;51.40;35.90;;;6.10;99.90;;;;;;4993121;28;20053;-84
2023/04/10 03:33:28;;;;;;;48.75;34.78;;;6.30;99.90;;;;;;4976636;28;20069;-84
2023/04/10 03:35:53;;;;;;;51.63;35.72;;;6.10;99.90;;;;;;4975585;28;20140;-84
2023/04/10 03:38:19;;;;;;;51.55;35.33;;;6.30;99.90;;;;;;4992805;28;20227;-84
2023/04/10 03:40:44;;;;;;;58.00;36.90;;;6.20;99.90;;;;;;4993140;28;20108;-84
2023/04/10 03:43:10;;;;;;;53.10;36.33;;;6.60;99.90;;;;;;4976103;28;20049;-83
2023/04/10 03:45:36;;;;;;;56.03;35.88;;;6.00;99.90;;;;;;4976623;28;20041;-84
2023/04/10 03:48:02;;;;;;;51.17;36.63;;;6.00;99.90;;;;;;4993497;28;20046;-84
2023/04/10 03:50:27;;;;;;;56.10;37.50;;;5.90;99.90;;;;;;4974576;28;20097;-84
2023/04/10 03:52:53;;;;;;;53.38;37.05;;;5.90;99.90;;;;;;4977149;28;20081;-84
2023/04/10 03:55:19;;;;;;;55.40;37.38;;;5.90;99.90;;;;;;4992653;28;20042;-84
2023/04/10 03:57:46;;;;;;;50.38;36.45;;;5.80;99.90;;;;;;4976352;28;20104;-84
2023/04/10 04:00:13;;;;;;;58.38;38.90;;;5.80;99.90;;;;;;4976958;28;20030;-83
2023/04/10 04:02:39;;;;;;;55.35;37.97;;;5.80;99.90;;;;;;4991988;28;20042;-84
2023/04/10 04:05:05;;;;;;;50.22;36.22;;;5.80;99.90;;;;;;4975918;28;20466;-83
2023/04/10 04:07:30;;;;;;;52.45;37.03;;;5.80;99.90;;;;;;4988137;28;20054;-84
2023/04/10 04:09:56;;;;;;;56.38;37.70;;;5.70;99.90;;;;;;4976229;28;20048;-84
2023/04/10 04:12:22;;;;;;;54.10;38.15;;;5.70;99.90;;;;;;4991955;28;20050;-84
2023/04/10 04:14:47;;;;;;;55.97;38.05;;;5.70;99.90;;;;;;4976166;28;20050;-84
2023/04/10 04:17:13;;;;;;;56.25;39.95;;;5.70;99.90;;;;;;4991421;28;20037;-84
2023/04/10 04:19:39;;;;;;;57.45;39.83;;;5.70;99.90;;;;;;4976017;28;20401;-84
2023/04/10 04:22:05;;;;;;;56.33;40.50;;;5.70;99.90;;;;;;4975550;28;20042;-83
2023/04/10 04:24:30;;;;;;;56.25;40.72;;;6.50;99.90;;;;;;4991153;28;20456;-84
2023/04/10 04:26:56;;;;;;;57.67;39.47;;;5.70;99.90;;;;;;4992009;28;20084;-84
2023/04/10 04:29:22;;;;;;;57.75;40.05;;;6.20;99.90;;;;;;4991887;28;20052;-84
2023/04/10 04:31:47;;;;;;;60.75;41.65;;;6.20;99.90;;;;;;4991285;28;20049;-84
2023/04/10 04:34:13;;;;;;;59.40;40.08;;;6.20;99.90;;;;;;4976543;28;20097;-83
2023/04/10 04:36:39;;;;;;;60.72;41.20;;;6.20;99.90;;;;;;4978460;28;20612;-84
2023/04/10 04:39:05;;;;;;;62.08;41.53;;;5.80;99.90;;;;;;4975185;28;20050;-83
2023/04/10 04:41:31;;;;;;;64.18;42.33;;;6.20;99.90;;;;;;4991262;28;20417;-84
2023/04/10 04:43:57;;;;;;;61.67;41.20;;;6.10;99.90;;;;;;4992478;28;20084;-84
2023/04/10 04:46:23;;;;;;;61.65;43.08;;;5.80;99.90;;;;;;4990852;28;20034;-84
2023/04/10 04:48:49;;;;;;;65.80;43.92;;;5.80;99.90;;;;;;4992154;28;20408;-84
2023/04/10 04:51:15;;;;;;;60.60;41.78;;;5.90;99.90;;;;;;4990637;28;20461;-84
2023/04/10 04:53:40;;;;;;;66.80;43.95;;;6.00;99.90;;;;;;4974868;28;20050;-83
2023/04/10 04:56:06;;;;;;;64.07;44.35;;;6.00;99.90;;;;;;4975633;28;20490;-84
2023/04/10 04:58:32;;;;;;;63.13;43.53;;;5.80;99.90;;;;;;4991472;28;20077;-83
2023/04/10 05:00:58;;;;;;;62.92;43.72;;;6.30;99.90;;;;;;4974774;28;20081;-84
2023/04/10 05:03:24;;;;;;;65.50;43.67;;;5.90;99.90;;;;;;4975000;28;20111;-85
2023/04/10 05:05:50;;;;;;;65.30;44.95;;;5.90;99.90;;;;;;4991262;28;20103;-84
2023/04/10 05:08:16;;;;;;;65.78;45.75;;;5.90;99.90;;;;;;4981299;28;20054;-84
2023/04/10 05:10:41;;;;;;;64.50;44.47;;;6.30;99.90;;;;;;4991094;28;20177;-84
2023/04/10 05:13:07;;;;;;;68.53;45.72;;;6.10;99.90;;;;;;4974824;28;20058;-84
2023/04/10 05:15:33;;;;;;;65.85;45.78;;;6.10;99.90;;;;;;4990316;28;20077;-85
2023/04/10 05:17:58;;;;;;;72.28;44.88;;;6.20;99.90;;;;;;4992051;28;20049;-84
2023/04/10 05:20:25;;;;;;;68.85;46.75;;;6.20;99.90;;;;;;4989846;28;20490;-84
2023/04/10 05:22:51;;;;;;;67.65;45.70;;;6.20;99.90;;;;;;4990824;28;20054;-84
2023/04/10 05:25:17;;;;;;;65.68;46.63;;;6.40;99.90;;;;;;4990835;28;20046;-84
2023/04/10 05:27:43;;;;;;;72.38;46.80;;;6.30;99.90;;;;;;4973946;28;20042;-84
2023/04/10 05:30:09;;;;;;;68.65;46.70;;;6.40;99.90;;;;;;4975580;28;20112;-84
2023/04/10 05:32:35;;;;;;;65.72;45.42;;;6.40;99.90;;;;;;4974127;28;20464;-84
2023/04/10 05:35:01;;;;;;;70.60;48.22;;;6.50;99.90;;;;;;4990722;28;20125;-84
2023/04/10 05:37:26;;;;;;;67.88;46.85;;;6.50;99.90;;;;;;4990419;28;20057;-84
2023/04/10 05:39:52;;;;;;;70.68;48.20;;;6.60;99.90;;;;;;4974513;28;20038;-84
2023/04/10 05:42:18;;;;;;;72.03;47.00;;;7.10;99.90;;;;;;4973824;28;20053;-83
2023/04/10 05:44:44;;;;;;;65.88;45.97;;;7.20;99.90;;;;;;4974346;28;20049;-84
2023/04/10 05:47:10;;;;;;;67.30;45.17;;;6.80;99.90;;;;;;4974945;28;20054;-83
2023/04/10 05:49:35;;;;;;;66.13;44.90;;;6.80;99.90;;;;;;4985137;28;20093;-85
2023/04/10 05:52:01;;;;;;;65.07;46.22;;;6.90;99.90;;;;;;4955594;28;20382;-84
2023/04/10 05:54:27;;;;;;;65.65;47.10;;;6.90;99.90;;;;;;4976050;28;20129;-84
2023/04/10 05:56:52;;;;;;;67.57;45.60;;;7.30;99.90;;;;;;4974153;28;20137;-84
2023/04/10 05:59:18;;;;;;;67.85;46.85;;;7.00;99.90;;;;;;4966969;28;20045;-84
2023/04/10 06:01:46;;;;;;;63.88;45.67;;;7.40;99.90;;;;;;4973550;28;20049;-83
2023/04/10 06:04:11;;;;;;;66.72;47.30;;;7.10;99.90;;;;;;4984567;28;20042;-84
2023/04/10 06:06:38;;;;;;;64.05;46.88;;;7.10;99.90;;;;;;4980014;28;20044;-84
2023/04/10 06:09:03;;;;;;;70.18;45.30;;;7.50;99.90;;;;;;4984150;28;20041;-85
2023/04/10 06:11:29;;;;;;;65.32;44.75;;;7.30;99.90;;;;;;4969962;28;20042;-84
2023/04/10 06:13:55;;;;;;;65.53;44.03;;;7.30;99.90;;;;;;4986466;28;20566;-83
2023/04/10 06:16:21;;;;;;;65.97;44.53;;;7.60;99.90;;;;;;4970006;28;20086;-83
2023/04/10 06:18:46;;;;;;;64.35;43.42;;;7.30;99.90;;;;;;4986901;28;20138;-84
2023/04/10 06:21:13;;;;;;;59.65;42.80;;;7.40;99.90;;;;;;4985926;28;20053;-83
2023/04/10 06:23:39;;;;;;;65.07;42.88;;;7.40;99.90;;;;;;4969922;28;20081;-84
2023/04/10 06:26:05;;;;;;;66.28;45.80;;;7.50;99.90;;;;;;4986970;28;20469;-84
2023/04/10 06:28:31;;;;;;;65.15;43.25;;;7.60;99.90;;;;;;4969780;28;20081;-84
2023/04/10 06:30:57;;;;;;;64.20;44.95;;;7.60;99.90;;;;;;4986060;28;20089;-84
2023/04/10 06:33:22;;;;;;;63.42;43.63;;;7.70;99.90;;;;;;4985722;28;20042;-84
2023/04/10 06:35:50;;;;;;;66.65;44.47;;;7.70;99.90;;;;;;4969010;28;20533;-84
2023/04/10 06:38:16;;;;;;;66.40;46.22;;;7.80;99.90;;;;;;4985739;28;20058;-84
2023/04/10 06:40:41;;;;;;;65.45;45.30;;;7.90;99.90;;;;;;4969594;28;20046;-85
2023/04/10 06:43:07;;;;;;;65.75;44.25;;;7.90;99.90;;;;;;4964520;28;20134;-85
2023/04/10 06:45:33;;;;;;;65.43;46.10;;;7.90;99.90;;;;;;4962516;28;20034;-84
2023/04/10 06:47:58;;;;;;;66.47;46.65;;;8.20;99.90;;;;;;4970610;28;20502;-84
2023/04/10 06:50:24;;;;;;;67.70;45.60;;;8.00;99.90;;;;;;4967106;28;20045;-84
2023/04/10 06:52:52;;;;;;;62.60;44.53;;;8.00;99.90;;;;;;4985181;28;20086;-85
2023/04/10 06:55:17;;;;;;;65.00;44.67;;;8.10;99.90;;;;;;4970619;28;20050;-85
2023/04/10 06:57:44;;;;;;;70.68;45.17;;;8.20;99.90;;;;;;4969445;28;20057;-85
2023/04/10 07:00:11;;;;;;;75.18;44.60;;;8.30;99.90;;;;;;4985705;28;20042;-84
2023/04/10 07:02:36;;;;;;;64.88;43.92;;;8.40;99.90;;;;;;4969375;28;20494;-85
2023/04/10 07:05:02;;;;;;;59.85;43.50;;;8.50;99.90;;;;;;4970673;28;20046;-85
2023/04/10 07:07:28;;;;;;;62.03;42.70;;;8.60;99.90;;;;;;4968229;28;20046;-85
2023/04/10 07:09:53;;;;;;;66.10;44.78;;;8.70;99.90;;;;;;4970365;28;20104;-85
2023/04/10 07:12:19;;;;;;;58.88;41.55;;;8.70;99.90;;;;;;4988558;28;20049;-87
2023/04/10 07:14:45;;;;;;;60.63;43.55;;;8.80;99.90;;;;;;4972769;28;20050;-85
2023/04/10 07:17:11;;;;;;;65.20;44.55;;;8.70;99.90;;;;;;4989090;28;20046;-85
2023/04/10 07:19:37;;;;;;;59.53;42.20;;;8.70;99.90;;;;;;4989399;28;20423;-85
2023/04/10 07:22:02;;;;;;;68.03;45.22;;;8.70;99.90;;;;;;4971802;28;20113;-85
2023/04/10 07:24:29;;;;;;;58.90;41.30;;;8.70;99.90;;;;;;4972905;28;20474;-85
2023/04/10 07:26:56;;;;;;;59.33;41.10;;;8.80;99.90;;;;;;4972349;28;20042;-85
2023/04/10 07:29:21;;;;;;;62.95;44.30;;;8.80;99.90;;;;;;4972643;28;20474;-85
2023/04/10 07:31:47;;;;;;;63.20;41.70;;;9.00;99.90;;;;;;4973041;28;20060;-84
2023/04/10 07:34:13;;;;;;;59.20;41.50;;;9.00;99.90;;;;;;4984991;28;20042;-85
2023/04/10 07:36:39;;;;;;;60.95;40.90;;;9.10;99.90;;;;;;4983984;28;20900;-84
2023/04/10 07:39:05;;;;;;;60.50;41.13;;;9.10;99.90;;;;;;4970250;28;20035;-85
2023/04/10 07:41:31;;;;;;;59.03;40.38;;;9.20;99.90;;;;;;4971947;28;20500;-85
2023/04/10 07:43:56;;;;;;;55.88;39.80;;;9.30;99.90;;;;;;4973039;28;20540;-85
2023/04/10 07:46:22;;;;;;;55.20;39.47;;;9.40;99.90;;;;;;4972345;28;20034;-85
2023/04/10 07:48:48;;;;;;;54.67;38.78;;;9.50;99.90;;;;;;4976207;28;20049;-85
2023/04/10 07:51:15;;;;;;;58.72;40.17;;;9.60;99.90;;;;;;4969414;28;20385;-85
2023/04/10 07:53:41;;;;;;;55.95;38.88;;;9.70;99.90;;;;;;4963938;28;20099;-85
2023/04/10 07:56:07;;;;;;;57.50;39.17;;;9.90;99.90;;;;;;4975645;28;20132;-84
2023/04/10 07:58:33;;;;;;;54.25;37.85;;;10.00;99.90;;;;;;4989004;28;20046;-85
2023/04/10 08:00:58;;;;;;;49.55;35.70;;;10.50;99.90;;;;;;4986305;28;20050;-85
2023/04/10 08:03:25;;;;;;;60.60;36.50;;;10.40;99.90;;;;;;4985229;28;20064;-86
2023/04/10 08:05:51;;;;;;;53.53;35.35;;;10.60;99.90;;;;;;4975925;28;20092;-84
2023/04/10 08:08:16;;;;;;;47.72;32.92;;;10.70;99.90;;;;;;4992884;28;20117;-84
2023/04/10 08:10:42;;;;;;;46.63;32.47;;;10.80;99.90;;;;;;4990851;28;20472;-84
2023/04/10 08:13:08;;;;;;;48.13;33.30;;;11.00;99.90;;;;;;4992668;28;20081;-84
2023/04/10 08:15:34;;;;;;;49.03;32.45;;;11.10;99.90;;;;;;4974447;28;20038;-84
2023/04/10 08:18:00;;;;;;;47.90;33.67;;;11.10;99.90;;;;;;4992008;28;20045;-84
2023/04/10 08:20:26;;;;;;;44.50;32.08;;;11.20;99.90;;;;;;4991658;28;20053;-84
2023/04/10 08:22:53;;;;;;;43.60;31.33;;;11.20;99.90;;;;;;4975684;28;20099;-84
2023/04/10 08:25:19;;;;;;;44.38;31.10;;;11.30;99.90;;;;;;4990800;28;20044;-84
2023/04/10 08:27:44;;;;;;;42.42;30.38;;;11.30;99.90;;;;;;4987929;28;20145;-85
2023/04/10 08:30:10;;;;;;;44.17;30.80;;;11.30;99.90;;;;;;4988298;28;20038;-84
2023/04/10 08:32:38;;;;;;;43.13;30.63;;;11.30;99.90;;;;;;4991792;28;20060;-84
2023/04/10 08:35:04;;;;;;;45.13;31.30;;;11.30;99.90;;;;;;4992191;28;20481;-84
2023/04/10 08:37:29;;;;;;;43.65;29.92;;;11.40;99.90;;;;;;4990137;28;20196;-84
2023/04/10 08:39:57;;;;;;;40.45;28.98;;;11.50;99.90;;;;;;4981634;28;20566;-83
2023/04/10 08:42:24;;;;;;;37.25;27.73;;;11.70;99.90;;;;;;4991323;28;20061;-84
2023/04/10 08:44:51;;;;;;;42.95;28.80;;;11.80;99.90;;;;;;4990956;28;20508;-84
2023/04/10 08:47:20;;;;;;;36.10;26.50;;;12.00;99.90;;;;;;4975668;28;20088;-84
2023/04/10 08:49:47;;;;;;;37.35;26.60;;;12.10;99.90;;;;;;4975338;28;20048;-84
2023/04/10 08:52:16;;;;;;;36.90;24.20;;;12.20;99.90;;;;;;4990705;28;20089;-84
2023/04/10 08:54:47;;;;;;;33.40;24.25;;;12.40;99.90;;;;;;4991695;28;20405;-85
2023/04/10 08:57:18;;;;;;;35.42;23.98;;;12.50;99.90;;;;;;4991451;28;20061;-85
2023/04/10 08:59:44;;;;;;;32.72;23.27;;;12.50;99.90;;;;;;4973706;28;20505;-84
2023/04/10 09:02:10;;;;;;;33.05;21.55;;;12.50;99.90;;;;;;4978616;28;20072;-84
2023/04/10 09:04:35;;;;;;;34.55;21.38;;;12.60;99.90;;;;;;4992043;28;20359;-84
2023/04/10 09:07:01;;;;;;;28.63;21.20;;;12.70;99.90;;;;;;4973841;28;20038;-84
2023/04/10 09:09:31;;;;;;;29.02;21.33;;;12.80;99.90;;;;;;4974867;28;20038;-84
2023/04/10 09:11:59;;;;;;;30.65;21.80;;;12.90;99.90;;;;;;4990898;28;20416;-84
2023/04/10 09:14:28;;;;;;;31.33;21.30;;;13.00;99.90;;;;;;4974164;28;20053;-85
2023/04/10 09:17:10;;;;;;;31.30;20.95;;;13.10;99.90;;;;;;4990751;28;20551;-85
2023/04/10 09:19:35;;;;;;;29.38;20.52;;;13.10;99.90;;;;;;4973349;28;20045;-84
2023/04/10 09:22:01;;;;;;;29.02;20.45;;;13.10;99.90;;;;;;4970555;28;20062;-84
2023/04/10 09:24:27;;;;;;;29.42;20.45;;;13.20;99.90;;;;;;4983288;28;20081;-85
2023/04/10 09:26:53;;;;;;;27.75;19.95;;;13.20;99.90;;;;;;4973571;28;20046;-84
2023/04/10 09:29:19;;;;;;;32.78;20.13;;;13.40;99.90;;;;;;4991186;28;20045;-84
2023/04/10 09:31:45;;;;;;;28.88;19.67;;;13.50;99.90;;;;;;4974327;28;20053;-84
2023/04/10 09:34:21;;;;;;;27.88;19.25;;;13.70;99.90;;;;;;4990176;28;20050;-85
2023/04/10 09:36:58;;;;;;;24.63;18.55;;;13.80;99.90;;;;;;4990366;28;20038;-84
2023/04/10 09:39:41;;;;;;;39.00;18.88;;;13.80;99.90;;;;;;4990747;28;20053;-84
2023/04/10 09:42:08;;;;;;;31.65;18.73;;;13.90;99.90;;;;;;4973714;28;20041;-84
2023/04/10 09:44:36;;;;;;;25.50;18.63;;;13.90;99.90;;;;;;4974586;28;20041;-84
2023/04/10 09:47:19;;;;;;;24.90;18.40;;;14.00;99.90;;;;;;4990537;28;20482;-84
2023/04/10 09:49:51;;;;;;;50.83;19.92;;;14.10;99.90;;;;;;4961941;28;20441;-83
2023/04/10 09:52:25;;;;;;;48.33;19.80;;;14.30;99.90;;;;;;4973136;28;20095;-83
2023/04/10 09:54:51;;;;;;;26.52;17.95;;;14.40;99.90;;;;;;4990456;28;20405;-83
2023/04/10 09:57:19;;;;;;;30.33;17.83;;;14.50;99.90;;;;;;4990142;28;20037;-83
2023/04/10 09:59:50;;;;;;;45.80;18.85;;;14.70;99.90;;;;;;4974679;28;20045;-83
2023/04/10 10:02:18;;;;;;;36.85;19.05;;;14.70;99.90;;;;;;4988624;28;20529;-83
2023/04/10 10:04:46;;;;;;;35.30;18.95;;;14.70;99.90;;;;;;4974320;28;20092;-82
2023/04/10 10:07:14;;;;;;;26.05;18.30;;;14.80;99.90;;;;;;4973238;28;20049;-83
2023/04/10 10:09:42;;;;;;;24.63;16.58;;;14.90;99.90;;;;;;4973202;28;20056;-84
2023/04/10 10:12:10;;;;;;;24.75;15.63;;;15.00;99.90;;;;;;4990130;28;20050;-83
2023/04/10 10:15:00;;;;;;;22.33;16.00;;;15.00;99.90;;;;;;4990471;28;20077;-83
2023/04/10 10:17:37;;;;;;;24.30;15.02;;;15.00;99.90;;;;;;4972996;28;20382;-83
2023/04/10 10:20:09;;;;;;;23.45;14.13;;;15.10;99.90;;;;;;4990563;28;20046;-83
2023/04/10 10:22:36;;;;;;;19.05;14.35;;;15.10;99.90;;;;;;4988153;28;20072;-84
2023/04/10 10:25:03;;;;;;;24.92;15.60;;;15.10;99.90;;;;;;4974138;28;20041;-84
2023/04/10 10:27:32;;;;;;;27.17;15.10;;;15.20;99.90;;;;;;4973202;28;20046;-84
2023/04/10 10:29:59;;;;;;;22.83;14.93;;;15.20;99.90;;;;;;4989754;28;20129;-84
2023/04/10 10:32:26;;;;;;;21.27;14.38;;;15.20;99.90;;;;;;4973570;28;20057;-85
2023/04/10 10:34:53;;;;;;;19.20;13.32;;;15.30;99.90;;;;;;4974236;28;20046;-85
2023/04/10 10:37:20;;;;;;;23.20;14.73;;;15.40;99.90;;;;;;4988918;28;20132;-83
2023/04/10 10:40:00;;;;;;;21.25;13.93;;;15.50;99.90;;;;;;4974036;28;20122;-83
2023/04/10 10:42:35;;;;;;;27.65;13.90;;;15.50;99.90;;;;;;4972893;28;20137;-84
2023/04/10 10:45:12;;;;;;;18.40;13.63;;;15.40;99.90;;;;;;4973361;28;20108;-84
2023/04/10 10:47:42;;;;;;;17.35;12.77;;;15.40;99.90;;;;;;4960812;28;20075;-83
2023/04/10 10:50:08;;;;;;;18.55;12.75;;;15.40;99.90;;;;;;4973558;28;20505;-83
2023/04/10 10:52:43;;;;;;;15.35;11.57;;;15.30;99.90;;;;;;4991176;28;20045;-83
2023/04/10 10:55:21;;;;;;;15.05;10.80;;;15.20;99.90;;;;;;4990285;28;20076;-83
2023/04/10 10:57:52;;;;;;;15.13;10.98;;;15.10;99.90;;;;;;4988286;28;20038;-83
2023/04/10 11:00:19;;;;;;;13.73;9.80;;;15.00;99.90;;;;;;5001096;28;20042;-83
2023/04/10 11:02:44;;;;;;;14.98;10.20;;;15.10;99.90;;;;;;4975495;28;20050;-84
2023/04/10 11:05:50;;;;;;;14.25;9.45;;;15.10;99.90;;;;;;4981035;28;20046;-84
2023/04/10 11:08:15;;;;;;;15.55;9.77;;;15.10;99.90;;;;;;4971980;28;20054;-84
2023/04/10 11:11:09;;;;;;;12.60;9.15;;;15.20;99.90;;;;;;4979365;28;20064;-83
2023/04/10 11:13:40;;;;;;;10.50;7.80;;;15.30;99.90;;;;;;4974055;28;20050;-83
2023/04/10 11:16:09;;;;;;;11.68;7.97;;;15.30;99.90;;;;;;4968713;28;20076;-83
2023/04/10 11:18:44;;;;;;;10.05;7.32;;;15.20;99.90;;;;;;4981222;28;20486;-83
2023/04/10 11:21:11;;;;;;;14.18;8.48;;;15.30;99.90;;;;;;4966425;28;20074;-85
2023/04/10 11:23:48;;;;;;;19.17;8.38;;;15.30;99.90;;;;;;4979177;28;20038;-84
2023/04/10 11:26:35;;;;;;;14.45;8.30;;;15.30;99.90;;;;;;4976970;28;20052;-84
2023/04/10 11:29:04;;;;;;;12.88;7.97;;;15.30;99.90;;;;;;4994078;28;20050;-85
2023/04/10 11:31:31;;;;;;;18.17;7.32;;;15.40;99.90;;;;;;4976631;28;20046;-84
2023/04/10 11:34:02;;;;;;;11.80;7.95;;;15.40;99.90;;;;;;4993399;28;20486;-83
2023/04/10 11:36:29;;;;;;;11.65;7.20;;;15.40;99.90;;;;;;4992413;28;20045;-84
2023/04/10 11:38:58;;;;;;;10.43;6.75;;;15.50;99.90;;;;;;4978005;28;20045;-85
2023/04/10 11:41:30;;;;;;;9.80;7.50;;;15.50;99.90;;;;;;4975982;28;20403;-84
2023/04/10 11:43:57;;;;;;;9.93;7.10;;;15.50;99.90;;;;;;4977884;28;20046;-83
2023/04/10 11:46:23;;;;;;;10.00;6.60;;;15.50;99.90;;;;;;4976276;28;20553;-85
2023/04/10 11:48:54;;;;;;;11.05;6.47;;;15.50;99.90;;;;;;4964135;28;20157;-83
2023/04/10 11:51:21;;;;;;;8.10;6.40;;;15.60;99.90;;;;;;4963226;28;20040;-85
2023/04/10 11:53:46;;;;;;;9.32;6.80;;;15.60;99.90;;;;;;4976956;28;20041;-84
2023/04/10 11:56:18;;;;;;;9.77;6.78;;;15.60;99.90;;;;;;4992865;28;20053;-84
2023/04/10 11:58:44;;;;;;;9.73;6.32;;;15.60;99.90;;;;;;4992176;28;20050;-84
2023/04/10 12:01:13;;;;;;;8.43;5.80;;;15.60;99.90;;;;;;4971881;28;20118;-85
2023/04/10 12:03:41;;;;;;;11.80;5.55;;;15.60;99.90;;;;;;4988590;28;20057;-85
2023/04/10 12:06:10;;;;;;;9.48;5.53;;;15.70;99.90;;;;;;4976027;28;20038;-84
2023/04/10 12:08:40;;;;;;;10.98;4.93;;;15.80;99.90;;;;;;4992569;28;20053;-84
2023/04/10 12:11:07;;;;;;;9.57;5.30;;;15.90;99.90;;;;;;4975652;28;20402;-83
2023/04/10 12:13:33;;;;;;;8.50;5.20;;;15.90;99.90;;;;;;4975438;28;20185;-85
2023/04/10 12:16:02;;;;;;;8.05;4.90;;;16.00;99.90;;;;;;4995855;28;20046;-84
2023/04/10 12:18:29;;;;;;;11.25;4.70;;;16.10;99.90;;;;;;5003784;28;20038;-84
2023/04/10 12:20:56;;;;;;;11.77;4.60;;;16.10;99.90;;;;;;4974024;28;20799;-84
2023/04/10 12:23:23;;;;;;;6.72;4.35;;;16.20;99.90;;;;;;4972593;28;20077;-84
2023/04/10 12:25:50;;;;;;;6.78;4.03;;;16.30;99.90;;;;;;4995338;28;20150;-84
2023/04/10 12:28:18;;;;;;;11.73;4.03;;;16.40;99.90;;;;;;4986860;28;20366;-85
2023/04/10 12:30:48;;;;;;;6.20;4.07;;;16.50;99.90;;;;;;4973317;28;20148;-84
2023/04/10 12:33:19;;;;;;;9.20;3.70;;;16.60;99.90;;;;;;4972930;28;20481;-85
2023/04/10 12:35:44;;;;;;;9.10;3.60;;;16.80;99.90;;;;;;4974909;28;20518;-83
2023/04/10 12:38:10;;;;;;;6.30;3.35;;;17.00;99.90;;;;;;4976561;28;20042;-88